sensor_id;sensor_type;location;lat;lon;timestamp;temperature;humidity
16881;DHT22;8557;52.068;5.198;2022-09-27T00:01:28;10.50;99.90
16881;DHT22;8557;52.068;5.198;2022-09-27T00:03:55;10.50;99.90
16881;DHT22;8557;52.068;5.198;2022-09-27T00:06:25;10.40;99.90
16881;DHT22;8557;52.068;5.198;2022-09-27T00:08:52;10.40;99.90
16881;DHT22;8557;52.068;5.198;2022-09-27T00:11:24;10.40;99.90
16881;DHT22;8557;52.068;5.198;2022-09-27T00:13:51;10.50;99.90
16881;DHT22;8557;52.068;5.198;2022-09-27T00:16:20;10.50;99.90
16881;DHT22;8557;52.068;5.198;2022-09-27T00:18:47;10.50;99.90
16881;DHT22;8557;52.068;5.198;2022-09-27T00:21:14;10.50;99.90
16881;DHT22;8557;52.068;5.198;2022-09-27T00:23:41;10.50;99.90
16881;DHT22;8557;52.068;5.198;2022-09-27T00:26:10;10.40;99.90
16881;DHT22;8557;52.068;5.198;2022-09-27T00:28:38;10.40;99.90
16881;DHT22;8557;52.068;5.198;2022-09-27T00:31:13;10.40;99.90
16881;DHT22;8557;52.068;5.198;2022-09-27T00:33:44;11.70;99.90
16881;DHT22;8557;52.068;5.198;2022-09-27T00:36:11;10.20;99.90
16881;DHT22;8557;52.068;5.198;2022-09-27T00:38:39;10.10;99.90
16881;DHT22;8557;52.068;5.198;2022-09-27T00:41:06;10.20;99.90
16881;DHT22;8557;52.068;5.198;2022-09-27T00:43:43;10.10;99.90
16881;DHT22;8557;52.068;5.198;2022-09-27T00:46:12;10.00;99.90
16881;DHT22;8557;52.068;5.198;2022-09-27T00:48:40;10.00;99.90
16881;DHT22;8557;52.068;5.198;2022-09-27T00:51:09;9.90;99.90
16881;DHT22;8557;52.068;5.198;2022-09-27T00:53:39;9.80;99.90
16881;DHT22;8557;52.068;5.198;2022-09-27T00:56:11;9.70;99.90
16881;DHT22;8557;52.068;5.198;2022-09-27T00:58:41;9.80;99.90
16881;DHT22;8557;52.068;5.198;2022-09-27T01:01:08;9.60;99.90
16881;DHT22;8557;52.068;5.198;2022-09-27T01:03:43;9.60;99.90
16881;DHT22;8557;52.068;5.198;2022-09-27T01:06:13;9.50;99.90
16881;DHT22;8557;52.068;5.198;2022-09-27T01:08:42;9.50;99.90
16881;DHT22;8557;52.068;5.198;2022-09-27T01:11:13;9.50;99.90
16881;DHT22;8557;52.068;5.198;2022-09-27T01:13:48;9.50;99.90
16881;DHT22;8557;52.068;5.198;2022-09-27T01:16:22;9.60;99.90
16881;DHT22;8557;52.068;5.198;2022-09-27T01:18:59;9.70;99.90
16881;DHT22;8557;52.068;5.198;2022-09-27T01:21:44;9.70;99.90
16881;DHT22;8557;52.068;5.198;2022-09-27T01:24:41;9.80;99.90
16881;DHT22;8557;52.068;5.198;2022-09-27T01:30:26;9.80;99.90
16881;DHT22;8557;52.068;5.198;2022-09-27T01:33:04;9.80;99.90
16881;DHT22;8557;52.068;5.198;2022-09-27T01:35:37;9.70;99.90
16881;DHT22;8557;52.068;5.198;2022-09-27T01:38:14;9.70;99.90
16881;DHT22;8557;52.068;5.198;2022-09-27T01:40:52;9.60;99.90
16881;DHT22;8557;52.068;5.198;2022-09-27T01:43:25;9.50;99.90
16881;DHT22;8557;52.068;5.198;2022-09-27T01:45:57;9.40;99.90
16881;DHT22;8557;52.068;5.198;2022-09-27T01:48:30;9.30;99.90
16881;DHT22;8557;52.068;5.198;2022-09-27T01:51:02;9.30;99.90
16881;DHT22;8557;52.068;5.198;2022-09-27T01:53:34;9.30;99.90
16881;DHT22;8557;52.068;5.198;2022-09-27T01:56:03;7.40;99.90
16881;DHT22;8557;52.068;5.198;2022-09-27T01:58:36;9.30;99.90
16881;DHT22;8557;52.068;5.198;2022-09-27T02:01:06;9.20;99.90
16881;DHT22;8557;52.068;5.198;2022-09-27T02:03:38;9.00;99.90
16881;DHT22;8557;52.068;5.198;2022-09-27T02:06:10;9.00;99.90
16881;DHT22;8557;52.068;5.198;2022-09-27T02:08:41;9.00;99.90
16881;DHT22;8557;52.068;5.198;2022-09-27T02:11:11;8.90;99.90
16881;DHT22;8557;52.068;5.198;2022-09-27T02:13:43;9.10;99.90
16881;DHT22;8557;52.068;5.198;2022-09-27T02:16:20;9.10;99.90
16881;DHT22;8557;52.068;5.198;2022-09-27T02:18:55;9.10;99.90
16881;DHT22;8557;52.068;5.198;2022-09-27T02:21:33;9.10;99.90
16881;DHT22;8557;52.068;5.198;2022-09-27T02:24:04;9.20;99.90
16881;DHT22;8557;52.068;5.198;2022-09-27T02:26:36;9.30;99.90
16881;DHT22;8557;52.068;5.198;2022-09-27T02:29:08;9.30;99.90
16881;DHT22;8557;52.068;5.198;2022-09-27T02:31:37;9.30;99.90
16881;DHT22;8557;52.068;5.198;2022-09-27T02:34:07;9.30;99.90
16881;DHT22;8557;52.068;5.198;2022-09-27T02:36:35;9.30;99.90
16881;DHT22;8557;52.068;5.198;2022-09-27T02:39:02;9.20;99.90
16881;DHT22;8557;52.068;5.198;2022-09-27T02:41:29;9.20;99.90
16881;DHT22;8557;52.068;5.198;2022-09-27T02:43:58;9.10;99.90
16881;DHT22;8557;52.068;5.198;2022-09-27T02:46:55;9.10;99.90
16881;DHT22;8557;52.068;5.198;2022-09-27T02:49:36;9.00;99.90
16881;DHT22;8557;52.068;5.198;2022-09-27T02:52:15;9.00;99.90
16881;DHT22;8557;52.068;5.198;2022-09-27T02:54:51;9.00;99.90
16881;DHT22;8557;52.068;5.198;2022-09-27T02:57:30;9.00;99.90
16881;DHT22;8557;52.068;5.198;2022-09-27T03:00:03;9.10;99.90
16881;DHT22;8557;52.068;5.198;2022-09-27T03:02:38;9.10;99.90
16881;DHT22;8557;52.068;5.198;2022-09-27T03:05:10;9.20;99.90
16881;DHT22;8557;52.068;5.198;2022-09-27T03:07:38;9.30;99.90
16881;DHT22;8557;52.068;5.198;2022-09-27T03:10:06;9.30;99.90
16881;DHT22;8557;52.068;5.198;2022-09-27T03:12:33;9.10;99.90
16881;DHT22;8557;52.068;5.198;2022-09-27T03:15:00;9.10;99.90
16881;DHT22;8557;52.068;5.198;2022-09-27T03:19:58;9.10;99.90
16881;DHT22;8557;52.068;5.198;2022-09-27T03:22:25;9.20;99.90
16881;DHT22;8557;52.068;5.198;2022-09-27T03:24:51;9.30;99.90
16881;DHT22;8557;52.068;5.198;2022-09-27T03:27:18;9.30;99.90
16881;DHT22;8557;52.068;5.198;2022-09-27T03:29:45;9.40;99.90
16881;DHT22;8557;52.068;5.198;2022-09-27T03:32:12;9.50;99.90
16881;DHT22;8557;52.068;5.198;2022-09-27T03:34:38;9.50;99.90
16881;DHT22;8557;52.068;5.198;2022-09-27T03:37:07;9.50;99.90
16881;DHT22;8557;52.068;5.198;2022-09-27T03:39:34;9.50;99.90
16881;DHT22;8557;52.068;5.198;2022-09-27T03:42:01;9.40;99.90
16881;DHT22;8557;52.068;5.198;2022-09-27T03:44:27;9.40;99.90
16881;DHT22;8557;52.068;5.198;2022-09-27T03:46:54;9.20;99.90
16881;DHT22;8557;52.068;5.198;2022-09-27T03:49:21;9.20;99.90
16881;DHT22;8557;52.068;5.198;2022-09-27T03:51:48;9.10;99.90
16881;DHT22;8557;52.068;5.198;2022-09-27T03:54:16;9.10;99.90
16881;DHT22;8557;52.068;5.198;2022-09-27T03:56:44;9.00;99.90
16881;DHT22;8557;52.068;5.198;2022-09-27T03:59:10;9.00;99.90
16881;DHT22;8557;52.068;5.198;2022-09-27T04:01:37;9.00;99.90
16881;DHT22;8557;52.068;5.198;2022-09-27T04:04:04;8.90;99.90
16881;DHT22;8557;52.068;5.198;2022-09-27T04:06:31;8.90;99.90
16881;DHT22;8557;52.068;5.198;2022-09-27T04:08:59;8.80;99.90
16881;DHT22;8557;52.068;5.198;2022-09-27T04:11:27;8.90;99.90
16881;DHT22;8557;52.068;5.198;2022-09-27T04:13:54;8.90;99.90
16881;DHT22;8557;52.068;5.198;2022-09-27T04:16:22;9.00;99.90
16881;DHT22;8557;52.068;5.198;2022-09-27T04:18:49;9.10;99.90
16881;DHT22;8557;52.068;5.198;2022-09-27T04:21:16;9.10;99.90
16881;DHT22;8557;52.068;5.198;2022-09-27T04:23:45;9.00;99.90
16881;DHT22;8557;52.068;5.198;2022-09-27T04:26:12;9.00;99.90
16881;DHT22;8557;52.068;5.198;2022-09-27T04:28:40;8.90;99.90
16881;DHT22;8557;52.068;5.198;2022-09-27T04:31:07;8.80;99.90
16881;DHT22;8557;52.068;5.198;2022-09-27T04:33:33;8.80;99.90
16881;DHT22;8557;52.068;5.198;2022-09-27T04:36:00;8.70;99.90
16881;DHT22;8557;52.068;5.198;2022-09-27T04:38:45;8.80;99.90
16881;DHT22;8557;52.068;5.198;2022-09-27T04:41:12;8.80;99.90
16881;DHT22;8557;52.068;5.198;2022-09-27T04:43:40;8.80;99.90
16881;DHT22;8557;52.068;5.198;2022-09-27T04:46:07;8.90;99.90
16881;DHT22;8557;52.068;5.198;2022-09-27T04:48:34;9.00;99.90
16881;DHT22;8557;52.068;5.198;2022-09-27T04:51:02;9.00;99.90
16881;DHT22;8557;52.068;5.198;2022-09-27T04:53:29;9.10;99.90
16881;DHT22;8557;52.068;5.198;2022-09-27T04:55:56;9.10;99.90
16881;DHT22;8557;52.068;5.198;2022-09-27T04:58:24;9.00;99.90
16881;DHT22;8557;52.068;5.198;2022-09-27T05:00:52;9.10;99.90
16881;DHT22;8557;52.068;5.198;2022-09-27T05:03:20;9.10;99.90
16881;DHT22;8557;52.068;5.198;2022-09-27T05:05:47;9.10;99.90
16881;DHT22;8557;52.068;5.198;2022-09-27T05:08:14;9.10;99.90
16881;DHT22;8557;52.068;5.198;2022-09-27T05:10:40;9.00;99.90
16881;DHT22;8557;52.068;5.198;2022-09-27T05:13:07;9.10;99.90
16881;DHT22;8557;52.068;5.198;2022-09-27T05:15:34;9.10;99.90
16881;DHT22;8557;52.068;5.198;2022-09-27T05:18:02;9.10;99.90
16881;DHT22;8557;52.068;5.198;2022-09-27T05:20:29;9.10;99.90
16881;DHT22;8557;52.068;5.198;2022-09-27T05:22:56;9.10;99.90
16881;DHT22;8557;52.068;5.198;2022-09-27T05:25:22;9.20;99.90
16881;DHT22;8557;52.068;5.198;2022-09-27T05:27:50;9.10;99.90
16881;DHT22;8557;52.068;5.198;2022-09-27T05:30:17;9.10;99.90
16881;DHT22;8557;52.068;5.198;2022-09-27T05:32:44;9.10;99.90
16881;DHT22;8557;52.068;5.198;2022-09-27T05:35:15;9.10;99.90
16881;DHT22;8557;52.068;5.198;2022-09-27T05:37:49;9.20;99.90
16881;DHT22;8557;52.068;5.198;2022-09-27T05:40:16;9.20;99.90
16881;DHT22;8557;52.068;5.198;2022-09-27T05:42:43;9.10;99.90
16881;DHT22;8557;52.068;5.198;2022-09-27T05:45:10;9.20;99.90
16881;DHT22;8557;52.068;5.198;2022-09-27T05:47:36;9.20;99.90
16881;DHT22;8557;52.068;5.198;2022-09-27T05:50:04;9.20;99.90
16881;DHT22;8557;52.068;5.198;2022-09-27T05:52:35;9.20;99.90
16881;DHT22;8557;52.068;5.198;2022-09-27T05:55:02;9.50;99.90
16881;DHT22;8557;52.068;5.198;2022-09-27T05:57:29;9.40;99.90
16881;DHT22;8557;52.068;5.198;2022-09-27T05:59:56;9.40;99.90
16881;DHT22;8557;52.068;5.198;2022-09-27T06:02:24;9.50;99.90
16881;DHT22;8557;52.068;5.198;2022-09-27T06:04:51;9.60;99.90
16881;DHT22;8557;52.068;5.198;2022-09-27T06:07:19;9.60;99.90
16881;DHT22;8557;52.068;5.198;2022-09-27T06:09:47;9.70;99.90
16881;DHT22;8557;52.068;5.198;2022-09-27T06:12:14;9.80;99.90
16881;DHT22;8557;52.068;5.198;2022-09-27T06:14:41;9.80;99.90
16881;DHT22;8557;52.068;5.198;2022-09-27T06:17:07;9.80;99.90
16881;DHT22;8557;52.068;5.198;2022-09-27T06:19:34;9.90;99.90
16881;DHT22;8557;52.068;5.198;2022-09-27T06:22:01;9.90;99.90
16881;DHT22;8557;52.068;5.198;2022-09-27T06:24:28;9.90;99.90
16881;DHT22;8557;52.068;5.198;2022-09-27T06:26:56;9.90;99.90
16881;DHT22;8557;52.068;5.198;2022-09-27T06:29:23;10.00;99.90
16881;DHT22;8557;52.068;5.198;2022-09-27T06:31:50;10.00;99.90
16881;DHT22;8557;52.068;5.198;2022-09-27T06:34:17;10.00;99.90
16881;DHT22;8557;52.068;5.198;2022-09-27T06:36:43;10.00;99.90
16881;DHT22;8557;52.068;5.198;2022-09-27T06:39:11;10.10;99.90
16881;DHT22;8557;52.068;5.198;2022-09-27T06:44:07;10.20;99.90
16881;DHT22;8557;52.068;5.198;2022-09-27T06:49:02;10.20;99.90
16881;DHT22;8557;52.068;5.198;2022-09-27T06:51:29;10.00;99.90
16881;DHT22;8557;52.068;5.198;2022-09-27T06:56:23;10.40;99.90
16881;DHT22;8557;52.068;5.198;2022-09-27T07:01:36;10.60;99.90
16881;DHT22;8557;52.068;5.198;2022-09-27T07:06:30;10.70;99.90
16881;DHT22;8557;52.068;5.198;2022-09-27T07:08:57;10.70;99.90
16881;DHT22;8557;52.068;5.198;2022-09-27T07:11:24;10.70;99.90
16881;DHT22;8557;52.068;5.198;2022-09-27T07:13:51;10.90;99.90
16881;DHT22;8557;52.068;5.198;2022-09-27T07:16:18;11.00;99.90
16881;DHT22;8557;52.068;5.198;2022-09-27T07:18:46;11.20;99.90
16881;DHT22;8557;52.068;5.198;2022-09-27T07:21:14;11.50;99.90
16881;DHT22;8557;52.068;5.198;2022-09-27T07:26:09;11.50;99.90
16881;DHT22;8557;52.068;5.198;2022-09-27T07:28:36;11.60;99.90
16881;DHT22;8557;52.068;5.198;2022-09-27T07:31:06;11.60;99.90
16881;DHT22;8557;52.068;5.198;2022-09-27T07:33:33;11.30;99.90
16881;DHT22;8557;52.068;5.198;2022-09-27T07:36:07;11.30;99.90
16881;DHT22;8557;52.068;5.198;2022-09-27T07:41:05;11.10;99.90
16881;DHT22;8557;52.068;5.198;2022-09-27T07:48:26;11.00;99.90
16881;DHT22;8557;52.068;5.198;2022-09-27T07:53:22;11.20;99.90
16881;DHT22;8557;52.068;5.198;2022-09-27T07:55:49;11.20;99.90
16881;DHT22;8557;52.068;5.198;2022-09-27T07:58:18;11.30;99.90
16881;DHT22;8557;52.068;5.198;2022-09-27T08:03:14;11.00;99.90
16881;DHT22;8557;52.068;5.198;2022-09-27T08:05:42;11.50;99.90
16881;DHT22;8557;52.068;5.198;2022-09-27T08:10:37;10.60;99.90
16881;DHT22;8557;52.068;5.198;2022-09-27T08:13:09;11.10;99.90
16881;DHT22;8557;52.068;5.198;2022-09-27T08:15:36;11.20;99.90
16881;DHT22;8557;52.068;5.198;2022-09-27T08:18:04;11.20;99.90
16881;DHT22;8557;52.068;5.198;2022-09-27T08:25:28;10.80;99.90
16881;DHT22;8557;52.068;5.198;2022-09-27T08:27:57;10.80;99.90
16881;DHT22;8557;52.068;5.198;2022-09-27T08:30:26;10.70;99.90
16881;DHT22;8557;52.068;5.198;2022-09-27T08:32:56;10.40;99.90
16881;DHT22;8557;52.068;5.198;2022-09-27T08:35:23;10.50;99.90
16881;DHT22;8557;52.068;5.198;2022-09-27T08:37:54;10.60;99.90
16881;DHT22;8557;52.068;5.198;2022-09-27T08:40:23;10.50;99.90
16881;DHT22;8557;52.068;5.198;2022-09-27T08:43:02;10.60;99.90
16881;DHT22;8557;52.068;5.198;2022-09-27T08:45:35;10.60;99.90
16881;DHT22;8557;52.068;5.198;2022-09-27T08:48:05;10.50;99.90
16881;DHT22;8557;52.068;5.198;2022-09-27T08:50:35;10.50;99.90
16881;DHT22;8557;52.068;5.198;2022-09-27T08:53:04;10.50;99.90
16881;DHT22;8557;52.068;5.198;2022-09-27T08:55:40;10.50;99.90
16881;DHT22;8557;52.068;5.198;2022-09-27T08:58:13;10.50;99.90
16881;DHT22;8557;52.068;5.198;2022-09-27T09:00:41;10.60;99.90
16881;DHT22;8557;52.068;5.198;2022-09-27T09:03:16;10.50;99.90
16881;DHT22;8557;52.068;5.198;2022-09-27T09:05:48;10.30;99.90
16881;DHT22;8557;52.068;5.198;2022-09-27T09:08:25;10.30;99.90
16881;DHT22;8557;52.068;5.198;2022-09-27T09:11:02;10.40;99.90
16881;DHT22;8557;52.068;5.198;2022-09-27T09:14:08;9.60;99.90
16881;DHT22;8557;52.068;5.198;2022-09-27T09:16:44;10.30;99.90
16881;DHT22;8557;52.068;5.198;2022-09-27T09:19:27;10.30;99.90
16881;DHT22;8557;52.068;5.198;2022-09-27T09:22:07;10.40;99.90
16881;DHT22;8557;52.068;5.198;2022-09-27T09:24:51;10.50;99.90
16881;DHT22;8557;52.068;5.198;2022-09-27T09:27:27;10.50;99.90
16881;DHT22;8557;52.068;5.198;2022-09-27T09:30:10;10.10;99.90
16881;DHT22;8557;52.068;5.198;2022-09-27T09:32:53;10.40;99.90
16881;DHT22;8557;52.068;5.198;2022-09-27T09:35:25;10.90;99.90
16881;DHT22;8557;52.068;5.198;2022-09-27T09:37:56;11.10;99.90
16881;DHT22;8557;52.068;5.198;2022-09-27T09:40:28;11.10;99.90
16881;DHT22;8557;52.068;5.198;2022-09-27T09:42:58;11.00;99.90
16881;DHT22;8557;52.068;5.198;2022-09-27T09:45:31;11.10;99.90
16881;DHT22;8557;52.068;5.198;2022-09-27T09:48:03;11.20;99.90
16881;DHT22;8557;52.068;5.198;2022-09-27T09:50:35;11.20;99.90
16881;DHT22;8557;52.068;5.198;2022-09-27T09:53:11;11.50;99.90
16881;DHT22;8557;52.068;5.198;2022-09-27T09:55:41;11.40;99.90
16881;DHT22;8557;52.068;5.198;2022-09-27T09:58:19;11.40;99.90
16881;DHT22;8557;52.068;5.198;2022-09-27T10:00:50;11.50;99.90
16881;DHT22;8557;52.068;5.198;2022-09-27T10:05:46;11.20;99.90
16881;DHT22;8557;52.068;5.198;2022-09-27T10:08:17;11.10;99.90
16881;DHT22;8557;52.068;5.198;2022-09-27T10:13:15;10.90;99.90
16881;DHT22;8557;52.068;5.198;2022-09-27T10:15:43;11.40;99.90
16881;DHT22;8557;52.068;5.198;2022-09-27T10:18:16;11.20;99.90
16881;DHT22;8557;52.068;5.198;2022-09-27T10:20:48;11.30;99.90
16881;DHT22;8557;52.068;5.198;2022-09-27T10:23:19;11.50;99.90
16881;DHT22;8557;52.068;5.198;2022-09-27T10:25:51;11.20;99.90
16881;DHT22;8557;52.068;5.198;2022-09-27T10:28:36;11.70;99.90
16881;DHT22;8557;52.068;5.198;2022-09-27T10:31:05;11.90;99.90
16881;DHT22;8557;52.068;5.198;2022-09-27T10:33:34;12.00;99.90
16881;DHT22;8557;52.068;5.198;2022-09-27T10:38:31;11.90;99.90
16881;DHT22;8557;52.068;5.198;2022-09-27T10:41:15;11.90;99.90
16881;DHT22;8557;52.068;5.198;2022-09-27T10:46:17;11.70;99.90
16881;DHT22;8557;52.068;5.198;2022-09-27T10:49:06;11.60;99.90
16881;DHT22;8557;52.068;5.198;2022-09-27T10:51:34;11.30;99.90
16881;DHT22;8557;52.068;5.198;2022-09-27T10:56:30;11.50;99.90
16881;DHT22;8557;52.068;5.198;2022-09-27T10:58:58;11.50;99.90
16881;DHT22;8557;52.068;5.198;2022-09-27T11:01:26;11.70;99.90
16881;DHT22;8557;52.068;5.198;2022-09-27T11:04:05;11.80;99.90
16881;DHT22;8557;52.068;5.198;2022-09-27T11:09:15;11.40;99.90
16881;DHT22;8557;52.068;5.198;2022-09-27T11:11:43;11.50;99.90
16881;DHT22;8557;52.068;5.198;2022-09-27T11:14:18;11.40;99.90
16881;DHT22;8557;52.068;5.198;2022-09-27T11:19:57;11.40;99.90
16881;DHT22;8557;52.068;5.198;2022-09-27T11:22:41;11.60;99.90
16881;DHT22;8557;52.068;5.198;2022-09-27T11:25:19;11.50;99.90
16881;DHT22;8557;52.068;5.198;2022-09-27T11:27:58;11.50;99.90
16881;DHT22;8557;52.068;5.198;2022-09-27T11:30:30;11.60;99.90
16881;DHT22;8557;52.068;5.198;2022-09-27T11:33:19;11.40;99.90
16881;DHT22;8557;52.068;5.198;2022-09-27T11:36:02;11.30;99.90
16881;DHT22;8557;52.068;5.198;2022-09-27T11:38:33;11.00;99.90
16881;DHT22;8557;52.068;5.198;2022-09-27T11:41:17;11.00;99.90
16881;DHT22;8557;52.068;5.198;2022-09-27T11:43:59;11.10;99.90
16881;DHT22;8557;52.068;5.198;2022-09-27T11:46:31;11.10;99.90
16881;DHT22;8557;52.068;5.198;2022-09-27T11:49:30;11.40;99.90
16881;DHT22;8557;52.068;5.198;2022-09-27T11:52:25;10.60;99.90
16881;DHT22;8557;52.068;5.198;2022-09-27T11:55:08;11.10;99.90
16881;DHT22;8557;52.068;5.198;2022-09-27T11:57:41;11.10;99.90
16881;DHT22;8557;52.068;5.198;2022-09-27T12:00:15;11.00;99.90
16881;DHT22;8557;52.068;5.198;2022-09-27T12:03:06;10.80;99.90
16881;DHT22;8557;52.068;5.198;2022-09-27T12:05:41;10.70;99.90
16881;DHT22;8557;52.068;5.198;2022-09-27T12:08:29;10.60;99.90
16881;DHT22;8557;52.068;5.198;2022-09-27T12:11:02;10.50;99.90
16881;DHT22;8557;52.068;5.198;2022-09-27T12:13:35;10.50;99.90
16881;DHT22;8557;52.068;5.198;2022-09-27T12:16:04;10.50;99.90
16881;DHT22;8557;52.068;5.198;2022-09-27T12:18:35;10.80;99.90
16881;DHT22;8557;52.068;5.198;2022-09-27T12:21:05;10.60;99.90
16881;DHT22;8557;52.068;5.198;2022-09-27T12:23:38;10.50;99.90
16881;DHT22;8557;52.068;5.198;2022-09-27T12:26:10;10.90;99.90
16881;DHT22;8557;52.068;5.198;2022-09-27T12:28:43;10.50;99.90
16881;DHT22;8557;52.068;5.198;2022-09-27T12:31:15;10.30;99.90
16881;DHT22;8557;52.068;5.198;2022-09-27T12:33:48;10.20;99.90
16881;DHT22;8557;52.068;5.198;2022-09-27T12:36:17;10.30;99.90
16881;DHT22;8557;52.068;5.198;2022-09-27T12:38:55;10.40;99.90
16881;DHT22;8557;52.068;5.198;2022-09-27T12:41:28;10.40;99.90
16881;DHT22;8557;52.068;5.198;2022-09-27T12:43:56;10.10;99.90
16881;DHT22;8557;52.068;5.198;2022-09-27T12:46:34;10.50;99.90
16881;DHT22;8557;52.068;5.198;2022-09-27T12:49:10;11.40;99.90
16881;DHT22;8557;52.068;5.198;2022-09-27T12:51:40;10.50;99.90
16881;DHT22;8557;52.068;5.198;2022-09-27T12:54:36;10.70;99.90
16881;DHT22;8557;52.068;5.198;2022-09-27T12:57:12;11.20;99.90
16881;DHT22;8557;52.068;5.198;2022-09-27T12:59:58;11.30;99.90
16881;DHT22;8557;52.068;5.198;2022-09-27T13:02:50;11.50;99.90
16881;DHT22;8557;52.068;5.198;2022-09-27T13:11:46;12.20;99.90
16881;DHT22;8557;52.068;5.198;2022-09-27T13:14:23;12.50;99.90
16881;DHT22;8557;52.068;5.198;2022-09-27T13:19:40;13.60;99.90
16881;DHT22;8557;52.068;5.198;2022-09-27T13:22:08;13.70;99.90
16881;DHT22;8557;52.068;5.198;2022-09-27T13:24:43;14.00;99.90
16881;DHT22;8557;52.068;5.198;2022-09-27T13:27:37;14.60;99.90
16881;DHT22;8557;52.068;5.198;2022-09-27T13:33:27;21.90;1.00
16881;DHT22;8557;52.068;5.198;2022-09-27T13:39:16;27.20;99.90
16881;DHT22;8557;52.068;5.198;2022-09-27T13:41:57;28.30;99.90
16881;DHT22;8557;52.068;5.198;2022-09-27T13:44:40;27.90;1.00
16881;DHT22;8557;52.068;5.198;2022-09-27T13:47:19;26.90;99.90
16881;DHT22;8557;52.068;5.198;2022-09-27T13:49:54;22.80;1.00
16881;DHT22;8557;52.068;5.198;2022-09-27T13:52:27;22.50;36.40
16881;DHT22;8557;52.068;5.198;2022-09-27T13:54:59;19.20;1.00
16881;DHT22;8557;52.068;5.198;2022-09-27T13:57:46;18.40;48.70
16881;DHT22;8557;52.068;5.198;2022-09-27T14:00:19;18.40;48.30
16881;DHT22;8557;52.068;5.198;2022-09-27T14:02:58;17.60;82.20
16881;DHT22;8557;52.068;5.198;2022-09-27T14:05:29;16.90;99.90
16881;DHT22;8557;52.068;5.198;2022-09-27T14:07:58;16.20;99.90
16881;DHT22;8557;52.068;5.198;2022-09-27T14:10:27;15.70;99.90
16881;DHT22;8557;52.068;5.198;2022-09-27T14:12:56;15.40;99.90
16881;DHT22;8557;52.068;5.198;2022-09-27T14:15:26;15.00;99.90
16881;DHT22;8557;52.068;5.198;2022-09-27T14:17:56;14.00;99.90
16881;DHT22;8557;52.068;5.198;2022-09-27T14:20:44;13.90;99.90
16881;DHT22;8557;52.068;5.198;2022-09-27T14:23:16;13.70;99.90
16881;DHT22;8557;52.068;5.198;2022-09-27T14:25:45;13.70;99.90
16881;DHT22;8557;52.068;5.198;2022-09-27T14:28:23;13.70;99.90
16881;DHT22;8557;52.068;5.198;2022-09-27T14:31:13;13.60;99.90
16881;DHT22;8557;52.068;5.198;2022-09-27T14:33:42;13.20;99.90
16881;DHT22;8557;52.068;5.198;2022-09-27T14:36:24;13.30;99.90
16881;DHT22;8557;52.068;5.198;2022-09-27T14:39:14;13.30;99.90
16881;DHT22;8557;52.068;5.198;2022-09-27T14:41:41;12.90;99.90
16881;DHT22;8557;52.068;5.198;2022-09-27T14:44:14;12.90;99.90
16881;DHT22;8557;52.068;5.198;2022-09-27T14:46:42;12.70;99.90
16881;DHT22;8557;52.068;5.198;2022-09-27T14:49:17;13.20;99.90
16881;DHT22;8557;52.068;5.198;2022-09-27T14:51:50;13.00;99.90
16881;DHT22;8557;52.068;5.198;2022-09-27T14:54:20;13.00;99.90
16881;DHT22;8557;52.068;5.198;2022-09-27T14:56:48;13.00;99.90
16881;DHT22;8557;52.068;5.198;2022-09-27T14:59:19;13.10;99.90
16881;DHT22;8557;52.068;5.198;2022-09-27T15:01:53;13.10;99.90
16881;DHT22;8557;52.068;5.198;2022-09-27T15:04:21;13.00;99.90
16881;DHT22;8557;52.068;5.198;2022-09-27T15:11:44;12.80;99.90
16881;DHT22;8557;52.068;5.198;2022-09-27T15:14:16;13.00;99.90
16881;DHT22;8557;52.068;5.198;2022-09-27T15:19:15;12.60;99.90
16881;DHT22;8557;52.068;5.198;2022-09-27T15:21:43;12.60;99.90
16881;DHT22;8557;52.068;5.198;2022-09-27T15:24:38;12.50;99.90
16881;DHT22;8557;52.068;5.198;2022-09-27T15:27:13;12.40;99.90
16881;DHT22;8557;52.068;5.198;2022-09-27T15:29:47;12.30;99.90
16881;DHT22;8557;52.068;5.198;2022-09-27T15:32:16;12.60;99.90
16881;DHT22;8557;52.068;5.198;2022-09-27T15:34:45;12.10;99.90
16881;DHT22;8557;52.068;5.198;2022-09-27T15:37:25;12.30;99.90
16881;DHT22;8557;52.068;5.198;2022-09-27T15:39:52;11.70;99.90
16881;DHT22;8557;52.068;5.198;2022-09-27T15:42:19;12.10;99.90
16881;DHT22;8557;52.068;5.198;2022-09-27T15:44:48;12.10;99.90
16881;DHT22;8557;52.068;5.198;2022-09-27T15:47:37;12.10;99.90
16881;DHT22;8557;52.068;5.198;2022-09-27T15:50:34;12.50;99.90
16881;DHT22;8557;52.068;5.198;2022-09-27T15:53:02;12.00;99.90
16881;DHT22;8557;52.068;5.198;2022-09-27T15:55:33;12.00;99.90
16881;DHT22;8557;52.068;5.198;2022-09-27T15:58:03;10.50;99.90
16881;DHT22;8557;52.068;5.198;2022-09-27T16:03:00;12.00;99.90
16881;DHT22;8557;52.068;5.198;2022-09-27T16:05:27;12.00;99.90
16881;DHT22;8557;52.068;5.198;2022-09-27T16:07:56;11.90;99.90
16881;DHT22;8557;52.068;5.198;2022-09-27T16:10:28;11.80;99.90
16881;DHT22;8557;52.068;5.198;2022-09-27T16:12:55;11.80;99.90
16881;DHT22;8557;52.068;5.198;2022-09-27T16:15:22;11.50;99.90
16881;DHT22;8557;52.068;5.198;2022-09-27T16:20:19;11.60;99.90
16881;DHT22;8557;52.068;5.198;2022-09-27T16:22:47;11.40;99.90
16881;DHT22;8557;52.068;5.198;2022-09-27T16:25:16;11.40;99.90
16881;DHT22;8557;52.068;5.198;2022-09-27T16:30:11;11.30;99.90
16881;DHT22;8557;52.068;5.198;2022-09-27T16:32:39;11.30;99.90
16881;DHT22;8557;52.068;5.198;2022-09-27T16:35:07;11.20;99.90
16881;DHT22;8557;52.068;5.198;2022-09-27T16:40:01;11.20;99.90
16881;DHT22;8557;52.068;5.198;2022-09-27T16:42:29;9.70;99.90
16881;DHT22;8557;52.068;5.198;2022-09-27T16:47:23;11.10;99.90
16881;DHT22;8557;52.068;5.198;2022-09-27T16:55:03;9.80;99.90
16881;DHT22;8557;52.068;5.198;2022-09-27T16:57:32;11.00;99.90
16881;DHT22;8557;52.068;5.198;2022-09-27T17:02:27;13.90;99.90
16881;DHT22;8557;52.068;5.198;2022-09-27T17:12:15;10.20;99.90
16881;DHT22;8557;52.068;5.198;2022-09-27T17:14:43;10.50;99.90
16881;DHT22;8557;52.068;5.198;2022-09-27T17:22:05;11.60;99.90
16881;DHT22;8557;52.068;5.198;2022-09-27T17:24:33;10.90;99.90
16881;DHT22;8557;52.068;5.198;2022-09-27T17:27:00;10.50;99.90
16881;DHT22;8557;52.068;5.198;2022-09-27T17:31:56;10.60;99.90
16881;DHT22;8557;52.068;5.198;2022-09-27T17:34:25;10.40;99.90
16881;DHT22;8557;52.068;5.198;2022-09-27T17:39:20;10.50;99.90
16881;DHT22;8557;52.068;5.198;2022-09-27T17:41:47;10.30;99.90
16881;DHT22;8557;52.068;5.198;2022-09-27T17:44:16;10.30;99.90
16881;DHT22;8557;52.068;5.198;2022-09-27T17:46:44;9.80;99.90
16881;DHT22;8557;52.068;5.198;2022-09-27T17:49:13;10.10;99.90
16881;DHT22;8557;52.068;5.198;2022-09-27T17:51:58;10.30;99.90
16881;DHT22;8557;52.068;5.198;2022-09-27T17:54:25;10.00;99.90
16881;DHT22;8557;52.068;5.198;2022-09-27T17:56:53;10.10;99.90
16881;DHT22;8557;52.068;5.198;2022-09-27T17:59:20;9.90;99.90
16881;DHT22;8557;52.068;5.198;2022-09-27T18:01:47;9.90;99.90
16881;DHT22;8557;52.068;5.198;2022-09-27T18:04:17;10.00;99.90
16881;DHT22;8557;52.068;5.198;2022-09-27T18:06:45;10.10;99.90
16881;DHT22;8557;52.068;5.198;2022-09-27T18:09:13;10.00;99.90
16881;DHT22;8557;52.068;5.198;2022-09-27T18:11:41;9.90;99.90
16881;DHT22;8557;52.068;5.198;2022-09-27T18:14:08;10.20;99.90
16881;DHT22;8557;52.068;5.198;2022-09-27T18:16:37;9.80;99.90
16881;DHT22;8557;52.068;5.198;2022-09-27T18:19:07;9.80;99.90